sensor_id;sensor_type;location;lat;lon;timestamp;P1;durP1;ratioP1;P2;durP2;ratioP2
26407;SDS011;14583;43.604;1.364;2023-04-08T00:01:07;11.48;;;5.32;;
26407;SDS011;14583;43.604;1.364;2023-04-08T00:03:33;7.78;;;5.20;;
26407;SDS011;14583;43.604;1.364;2023-04-08T00:05:58;8.93;;;4.95;;
26407;SDS011;14583;43.604;1.364;2023-04-08T00:08:26;8.95;;;5.03;;
26407;SDS011;14583;43.604;1.364;2023-04-08T00:10:52;6.82;;;4.78;;
26407;SDS011;14583;43.604;1.364;2023-04-08T00:13:17;10.55;;;5.13;;
26407;SDS011;14583;43.604;1.364;2023-04-08T00:15:43;11.35;;;5.10;;
26407;SDS011;14583;43.604;1.364;2023-04-08T00:18:09;12.45;;;5.40;;
26407;SDS011;14583;43.604;1.364;2023-04-08T00:20:35;9.23;;;4.95;;
26407;SDS011;14583;43.604;1.364;2023-04-08T00:23:01;8.15;;;4.53;;
26407;SDS011;14583;43.604;1.364;2023-04-08T00:25:26;12.73;;;5.10;;
26407;SDS011;14583;43.604;1.364;2023-04-08T00:27:52;11.70;;;5.28;;
26407;SDS011;14583;43.604;1.364;2023-04-08T00:30:18;7.43;;;5.00;;
26407;SDS011;14583;43.604;1.364;2023-04-08T00:32:44;10.18;;;5.03;;
26407;SDS011;14583;43.604;1.364;2023-04-08T00:35:09;7.22;;;5.22;;
26407;SDS011;14583;43.604;1.364;2023-04-08T00:37:36;6.45;;;4.82;;
26407;SDS011;14583;43.604;1.364;2023-04-08T00:40:02;8.70;;;5.30;;
26407;SDS011;14583;43.604;1.364;2023-04-08T00:42:29;7.28;;;5.00;;
26407;SDS011;14583;43.604;1.364;2023-04-08T00:44:54;9.88;;;5.10;;
26407;SDS011;14583;43.604;1.364;2023-04-08T00:47:20;11.68;;;5.53;;
26407;SDS011;14583;43.604;1.364;2023-04-08T00:49:46;14.07;;;5.32;;
26407;SDS011;14583;43.604;1.364;2023-04-08T00:52:12;11.20;;;5.32;;
26407;SDS011;14583;43.604;1.364;2023-04-08T00:54:38;9.80;;;5.60;;
26407;SDS011;14583;43.604;1.364;2023-04-08T00:57:04;8.90;;;5.03;;
26407;SDS011;14583;43.604;1.364;2023-04-08T00:59:30;9.27;;;6.00;;
26407;SDS011;14583;43.604;1.364;2023-04-08T01:04:43;11.48;;;5.88;;
26407;SDS011;14583;43.604;1.364;2023-04-08T01:07:44;18.42;;;6.70;;
26407;SDS011;14583;43.604;1.364;2023-04-08T01:10:16;15.63;;;7.07;;
26407;SDS011;14583;43.604;1.364;2023-04-08T01:12:53;10.95;;;6.50;;
26407;SDS011;14583;43.604;1.364;2023-04-08T01:15:21;12.32;;;6.85;;
26407;SDS011;14583;43.604;1.364;2023-04-08T01:17:53;12.68;;;6.88;;
26407;SDS011;14583;43.604;1.364;2023-04-08T01:20:21;12.25;;;6.82;;
26407;SDS011;14583;43.604;1.364;2023-04-08T01:22:54;12.82;;;6.70;;
26407;SDS011;14583;43.604;1.364;2023-04-08T01:25:29;11.63;;;6.82;;
26407;SDS011;14583;43.604;1.364;2023-04-08T01:28:00;11.90;;;6.78;;
26407;SDS011;14583;43.604;1.364;2023-04-08T01:30:30;10.65;;;6.93;;
26407;SDS011;14583;43.604;1.364;2023-04-08T01:32:58;9.85;;;6.30;;
26407;SDS011;14583;43.604;1.364;2023-04-08T01:35:27;11.32;;;6.30;;
26407;SDS011;14583;43.604;1.364;2023-04-08T01:37:52;12.38;;;6.80;;
26407;SDS011;14583;43.604;1.364;2023-04-08T01:40:19;12.20;;;6.38;;
26407;SDS011;14583;43.604;1.364;2023-04-08T01:42:48;11.38;;;6.60;;
26407;SDS011;14583;43.604;1.364;2023-04-08T01:45:17;10.73;;;5.97;;
26407;SDS011;14583;43.604;1.364;2023-04-08T01:47:46;10.68;;;6.40;;
26407;SDS011;14583;43.604;1.364;2023-04-08T01:50:13;10.18;;;5.78;;
26407;SDS011;14583;43.604;1.364;2023-04-08T01:52:42;9.73;;;5.93;;
26407;SDS011;14583;43.604;1.364;2023-04-08T01:55:09;12.85;;;6.00;;
26407;SDS011;14583;43.604;1.364;2023-04-08T01:57:36;11.95;;;6.00;;
26407;SDS011;14583;43.604;1.364;2023-04-08T02:00:04;9.57;;;5.72;;
26407;SDS011;14583;43.604;1.364;2023-04-08T02:02:35;11.95;;;6.10;;
26407;SDS011;14583;43.604;1.364;2023-04-08T02:05:02;8.68;;;5.07;;
26407;SDS011;14583;43.604;1.364;2023-04-08T02:07:28;9.90;;;5.15;;
26407;SDS011;14583;43.604;1.364;2023-04-08T02:09:54;10.02;;;5.03;;
26407;SDS011;14583;43.604;1.364;2023-04-08T02:12:20;7.80;;;4.85;;
26407;SDS011;14583;43.604;1.364;2023-04-08T02:14:46;8.18;;;5.15;;
26407;SDS011;14583;43.604;1.364;2023-04-08T02:17:20;13.70;;;4.82;;
26407;SDS011;14583;43.604;1.364;2023-04-08T02:20:06;11.73;;;5.55;;
26407;SDS011;14583;43.604;1.364;2023-04-08T02:25:02;11.35;;;5.72;;
26407;SDS011;14583;43.604;1.364;2023-04-08T02:27:33;9.63;;;5.30;;
26407;SDS011;14583;43.604;1.364;2023-04-08T02:30:01;9.90;;;5.10;;
26407;SDS011;14583;43.604;1.364;2023-04-08T02:32:29;12.75;;;5.57;;
26407;SDS011;14583;43.604;1.364;2023-04-08T02:34:57;9.55;;;5.00;;
26407;SDS011;14583;43.604;1.364;2023-04-08T02:37:25;8.48;;;4.88;;
26407;SDS011;14583;43.604;1.364;2023-04-08T02:39:52;7.32;;;5.13;;
26407;SDS011;14583;43.604;1.364;2023-04-08T02:42:19;12.52;;;5.57;;
26407;SDS011;14583;43.604;1.364;2023-04-08T02:44:45;8.50;;;5.25;;
26407;SDS011;14583;43.604;1.364;2023-04-08T02:47:11;9.68;;;4.85;;
26407;SDS011;14583;43.604;1.364;2023-04-08T02:49:36;8.05;;;4.60;;
26407;SDS011;14583;43.604;1.364;2023-04-08T02:52:02;9.25;;;4.78;;
26407;SDS011;14583;43.604;1.364;2023-04-08T02:54:28;9.52;;;5.15;;
26407;SDS011;14583;43.604;1.364;2023-04-08T02:56:54;8.57;;;4.43;;
26407;SDS011;14583;43.604;1.364;2023-04-08T02:59:20;9.35;;;5.00;;
26407;SDS011;14583;43.604;1.364;2023-04-08T03:01:45;11.25;;;4.47;;
26407;SDS011;14583;43.604;1.364;2023-04-08T03:04:11;6.55;;;4.40;;
26407;SDS011;14583;43.604;1.364;2023-04-08T03:06:36;9.38;;;4.50;;
26407;SDS011;14583;43.604;1.364;2023-04-08T03:09:02;8.80;;;4.88;;
26407;SDS011;14583;43.604;1.364;2023-04-08T03:11:29;9.07;;;4.55;;
26407;SDS011;14583;43.604;1.364;2023-04-08T03:13:55;7.75;;;4.85;;
26407;SDS011;14583;43.604;1.364;2023-04-08T03:16:21;6.50;;;4.50;;
26407;SDS011;14583;43.604;1.364;2023-04-08T03:18:48;10.02;;;4.93;;
26407;SDS011;14583;43.604;1.364;2023-04-08T03:21:14;9.68;;;5.00;;
26407;SDS011;14583;43.604;1.364;2023-04-08T03:23:40;8.73;;;4.40;;
26407;SDS011;14583;43.604;1.364;2023-04-08T03:26:05;7.13;;;4.60;;
26407;SDS011;14583;43.604;1.364;2023-04-08T03:28:31;7.18;;;4.97;;
26407;SDS011;14583;43.604;1.364;2023-04-08T03:30:57;7.43;;;5.03;;
26407;SDS011;14583;43.604;1.364;2023-04-08T03:33:22;8.70;;;5.00;;
26407;SDS011;14583;43.604;1.364;2023-04-08T03:35:48;12.07;;;4.85;;
26407;SDS011;14583;43.604;1.364;2023-04-08T03:38:13;7.45;;;4.28;;
26407;SDS011;14583;43.604;1.364;2023-04-08T03:40:39;8.77;;;4.53;;
26407;SDS011;14583;43.604;1.364;2023-04-08T03:43:05;9.80;;;4.75;;
26407;SDS011;14583;43.604;1.364;2023-04-08T03:45:32;7.15;;;4.97;;
26407;SDS011;14583;43.604;1.364;2023-04-08T03:47:58;10.13;;;5.43;;
26407;SDS011;14583;43.604;1.364;2023-04-08T03:50:24;10.98;;;5.80;;
26407;SDS011;14583;43.604;1.364;2023-04-08T03:52:49;10.25;;;5.47;;
26407;SDS011;14583;43.604;1.364;2023-04-08T03:55:15;7.88;;;4.85;;
26407;SDS011;14583;43.604;1.364;2023-04-08T03:57:41;7.47;;;4.60;;
26407;SDS011;14583;43.604;1.364;2023-04-08T04:00:09;7.35;;;5.25;;
26407;SDS011;14583;43.604;1.364;2023-04-08T04:02:35;7.03;;;4.70;;
26407;SDS011;14583;43.604;1.364;2023-04-08T04:05:01;8.88;;;5.00;;
26407;SDS011;14583;43.604;1.364;2023-04-08T04:07:26;8.07;;;4.70;;
26407;SDS011;14583;43.604;1.364;2023-04-08T04:09:52;8.30;;;4.50;;
26407;SDS011;14583;43.604;1.364;2023-04-08T04:12:20;7.43;;;4.68;;
26407;SDS011;14583;43.604;1.364;2023-04-08T04:14:45;11.52;;;4.75;;
26407;SDS011;14583;43.604;1.364;2023-04-08T04:17:11;9.93;;;4.93;;
26407;SDS011;14583;43.604;1.364;2023-04-08T04:19:37;9.00;;;4.82;;
26407;SDS011;14583;43.604;1.364;2023-04-08T04:22:02;11.60;;;5.40;;
26407;SDS011;14583;43.604;1.364;2023-04-08T04:24:28;7.15;;;4.55;;
26407;SDS011;14583;43.604;1.364;2023-04-08T04:26:54;7.30;;;4.72;;
26407;SDS011;14583;43.604;1.364;2023-04-08T04:29:19;14.57;;;4.63;;
26407;SDS011;14583;43.604;1.364;2023-04-08T04:31:45;9.57;;;5.20;;
26407;SDS011;14583;43.604;1.364;2023-04-08T04:34:11;9.07;;;5.30;;
26407;SDS011;14583;43.604;1.364;2023-04-08T04:36:36;8.55;;;4.78;;
26407;SDS011;14583;43.604;1.364;2023-04-08T04:39:02;7.75;;;4.93;;
26407;SDS011;14583;43.604;1.364;2023-04-08T04:41:27;11.18;;;5.00;;
26407;SDS011;14583;43.604;1.364;2023-04-08T04:43:53;9.77;;;5.60;;
26407;SDS011;14583;43.604;1.364;2023-04-08T04:46:19;13.07;;;5.28;;
26407;SDS011;14583;43.604;1.364;2023-04-08T04:48:44;7.88;;;5.03;;
26407;SDS011;14583;43.604;1.364;2023-04-08T04:51:10;6.57;;;4.25;;
26407;SDS011;14583;43.604;1.364;2023-04-08T04:53:36;6.75;;;5.20;;
26407;SDS011;14583;43.604;1.364;2023-04-08T04:56:01;10.80;;;5.55;;
26407;SDS011;14583;43.604;1.364;2023-04-08T04:58:27;9.18;;;5.22;;
26407;SDS011;14583;43.604;1.364;2023-04-08T05:00:53;8.73;;;5.53;;
26407;SDS011;14583;43.604;1.364;2023-04-08T05:03:19;11.05;;;5.40;;
26407;SDS011;14583;43.604;1.364;2023-04-08T05:05:49;7.82;;;5.43;;
26407;SDS011;14583;43.604;1.364;2023-04-08T05:08:17;10.13;;;5.55;;
26407;SDS011;14583;43.604;1.364;2023-04-08T05:10:43;9.90;;;5.30;;
26407;SDS011;14583;43.604;1.364;2023-04-08T05:13:09;7.90;;;5.18;;
26407;SDS011;14583;43.604;1.364;2023-04-08T05:15:35;9.23;;;5.43;;
26407;SDS011;14583;43.604;1.364;2023-04-08T05:18:00;8.00;;;5.10;;
26407;SDS011;14583;43.604;1.364;2023-04-08T05:20:26;9.68;;;5.15;;
26407;SDS011;14583;43.604;1.364;2023-04-08T05:22:52;6.63;;;5.07;;
26407;SDS011;14583;43.604;1.364;2023-04-08T05:25:18;9.27;;;4.75;;
26407;SDS011;14583;43.604;1.364;2023-04-08T05:27:43;6.03;;;4.78;;
26407;SDS011;14583;43.604;1.364;2023-04-08T05:30:09;9.63;;;5.22;;
26407;SDS011;14583;43.604;1.364;2023-04-08T05:32:35;8.32;;;4.97;;
26407;SDS011;14583;43.604;1.364;2023-04-08T05:35:04;7.68;;;5.38;;
26407;SDS011;14583;43.604;1.364;2023-04-08T05:37:30;9.70;;;5.05;;
26407;SDS011;14583;43.604;1.364;2023-04-08T05:39:56;12.32;;;6.88;;
26407;SDS011;14583;43.604;1.364;2023-04-08T05:42:21;7.82;;;5.28;;
26407;SDS011;14583;43.604;1.364;2023-04-08T05:44:47;10.10;;;5.07;;
26407;SDS011;14583;43.604;1.364;2023-04-08T05:47:12;6.97;;;5.30;;
26407;SDS011;14583;43.604;1.364;2023-04-08T05:49:38;11.18;;;4.95;;
26407;SDS011;14583;43.604;1.364;2023-04-08T05:52:04;8.63;;;5.65;;
26407;SDS011;14583;43.604;1.364;2023-04-08T05:54:30;10.77;;;5.18;;
26407;SDS011;14583;43.604;1.364;2023-04-08T05:56:56;8.57;;;4.85;;
26407;SDS011;14583;43.604;1.364;2023-04-08T05:59:22;9.35;;;5.10;;
26407;SDS011;14583;43.604;1.364;2023-04-08T06:01:47;13.18;;;5.80;;
26407;SDS011;14583;43.604;1.364;2023-04-08T06:04:13;7.25;;;5.35;;
26407;SDS011;14583;43.604;1.364;2023-04-08T06:06:41;10.68;;;6.45;;
26407;SDS011;14583;43.604;1.364;2023-04-08T06:09:07;9.85;;;5.75;;
26407;SDS011;14583;43.604;1.364;2023-04-08T06:11:34;9.18;;;5.70;;
26407;SDS011;14583;43.604;1.364;2023-04-08T06:14:00;13.60;;;5.65;;
26407;SDS011;14583;43.604;1.364;2023-04-08T06:16:25;8.32;;;5.60;;
26407;SDS011;14583;43.604;1.364;2023-04-08T06:18:51;18.92;;;5.53;;
26407;SDS011;14583;43.604;1.364;2023-04-08T06:21:17;12.82;;;5.65;;
26407;SDS011;14583;43.604;1.364;2023-04-08T06:23:43;10.73;;;5.35;;
26407;SDS011;14583;43.604;1.364;2023-04-08T06:26:08;8.18;;;5.43;;
26407;SDS011;14583;43.604;1.364;2023-04-08T06:28:34;8.25;;;5.55;;
26407;SDS011;14583;43.604;1.364;2023-04-08T06:31:00;11.75;;;5.60;;
26407;SDS011;14583;43.604;1.364;2023-04-08T06:33:25;9.45;;;5.28;;
26407;SDS011;14583;43.604;1.364;2023-04-08T06:35:51;10.05;;;5.22;;
26407;SDS011;14583;43.604;1.364;2023-04-08T06:38:25;9.55;;;5.90;;
26407;SDS011;14583;43.604;1.364;2023-04-08T06:40:50;9.05;;;6.35;;
26407;SDS011;14583;43.604;1.364;2023-04-08T06:43:16;7.13;;;5.28;;
26407;SDS011;14583;43.604;1.364;2023-04-08T06:45:41;8.93;;;5.28;;
26407;SDS011;14583;43.604;1.364;2023-04-08T06:48:07;7.88;;;4.70;;
26407;SDS011;14583;43.604;1.364;2023-04-08T06:50:33;6.80;;;4.70;;
26407;SDS011;14583;43.604;1.364;2023-04-08T06:52:59;8.02;;;4.40;;
26407;SDS011;14583;43.604;1.364;2023-04-08T06:55:24;7.88;;;4.47;;
26407;SDS011;14583;43.604;1.364;2023-04-08T06:57:51;6.75;;;4.22;;
26407;SDS011;14583;43.604;1.364;2023-04-08T07:00:16;5.78;;;4.30;;
26407;SDS011;14583;43.604;1.364;2023-04-08T07:02:42;10.13;;;4.68;;
26407;SDS011;14583;43.604;1.364;2023-04-08T07:05:08;11.73;;;4.60;;
26407;SDS011;14583;43.604;1.364;2023-04-08T07:07:34;7.65;;;4.75;;
26407;SDS011;14583;43.604;1.364;2023-04-08T07:10:00;10.50;;;4.65;;
26407;SDS011;14583;43.604;1.364;2023-04-08T07:12:26;5.75;;;4.43;;
26407;SDS011;14583;43.604;1.364;2023-04-08T07:14:51;8.57;;;4.20;;
26407;SDS011;14583;43.604;1.364;2023-04-08T07:17:17;6.05;;;4.22;;
26407;SDS011;14583;43.604;1.364;2023-04-08T07:19:43;8.98;;;4.28;;
26407;SDS011;14583;43.604;1.364;2023-04-08T07:22:09;8.02;;;4.00;;
26407;SDS011;14583;43.604;1.364;2023-04-08T07:24:34;7.05;;;4.15;;
26407;SDS011;14583;43.604;1.364;2023-04-08T07:27:00;7.72;;;3.92;;
26407;SDS011;14583;43.604;1.364;2023-04-08T07:29:26;7.68;;;3.65;;
26407;SDS011;14583;43.604;1.364;2023-04-08T07:31:52;6.97;;;3.40;;
26407;SDS011;14583;43.604;1.364;2023-04-08T07:34:17;6.30;;;3.45;;
26407;SDS011;14583;43.604;1.364;2023-04-08T07:36:43;5.90;;;3.15;;
26407;SDS011;14583;43.604;1.364;2023-04-08T07:39:09;7.45;;;3.47;;
26407;SDS011;14583;43.604;1.364;2023-04-08T07:41:35;10.68;;;4.22;;
26407;SDS011;14583;43.604;1.364;2023-04-08T07:44:01;5.40;;;3.78;;
26407;SDS011;14583;43.604;1.364;2023-04-08T07:46:26;6.80;;;4.20;;
26407;SDS011;14583;43.604;1.364;2023-04-08T07:48:52;13.57;;;4.10;;
26407;SDS011;14583;43.604;1.364;2023-04-08T07:51:17;8.93;;;4.25;;
26407;SDS011;14583;43.604;1.364;2023-04-08T07:53:43;10.27;;;4.38;;
26407;SDS011;14583;43.604;1.364;2023-04-08T07:56:10;5.72;;;3.85;;
26407;SDS011;14583;43.604;1.364;2023-04-08T07:58:36;8.05;;;3.90;;
26407;SDS011;14583;43.604;1.364;2023-04-08T08:01:04;8.52;;;3.83;;
26407;SDS011;14583;43.604;1.364;2023-04-08T08:03:38;10.50;;;3.63;;
26407;SDS011;14583;43.604;1.364;2023-04-08T08:06:04;6.28;;;3.47;;
26407;SDS011;14583;43.604;1.364;2023-04-08T08:08:29;8.18;;;3.63;;
26407;SDS011;14583;43.604;1.364;2023-04-08T08:10:57;8.70;;;4.20;;
26407;SDS011;14583;43.604;1.364;2023-04-08T08:13:23;7.32;;;3.80;;
26407;SDS011;14583;43.604;1.364;2023-04-08T08:15:51;8.10;;;3.50;;
26407;SDS011;14583;43.604;1.364;2023-04-08T08:18:17;10.65;;;3.83;;
26407;SDS011;14583;43.604;1.364;2023-04-08T08:20:43;7.97;;;3.35;;
26407;SDS011;14583;43.604;1.364;2023-04-08T08:23:09;6.70;;;3.40;;
26407;SDS011;14583;43.604;1.364;2023-04-08T08:25:35;5.38;;;3.35;;
26407;SDS011;14583;43.604;1.364;2023-04-08T08:28:00;8.48;;;3.50;;
26407;SDS011;14583;43.604;1.364;2023-04-08T08:30:26;7.55;;;3.00;;
26407;SDS011;14583;43.604;1.364;2023-04-08T08:32:52;7.20;;;3.22;;
26407;SDS011;14583;43.604;1.364;2023-04-08T08:35:18;6.82;;;3.35;;
26407;SDS011;14583;43.604;1.364;2023-04-08T08:37:43;8.23;;;3.30;;
26407;SDS011;14583;43.604;1.364;2023-04-08T08:40:09;7.85;;;2.88;;
26407;SDS011;14583;43.604;1.364;2023-04-08T08:42:35;7.32;;;3.13;;
26407;SDS011;14583;43.604;1.364;2023-04-08T08:45:02;12.43;;;2.78;;
26407;SDS011;14583;43.604;1.364;2023-04-08T08:47:27;6.18;;;2.60;;
26407;SDS011;14583;43.604;1.364;2023-04-08T08:49:54;8.85;;;2.60;;
26407;SDS011;14583;43.604;1.364;2023-04-08T08:52:20;5.95;;;2.78;;
26407;SDS011;14583;43.604;1.364;2023-04-08T08:54:45;6.50;;;2.67;;
26407;SDS011;14583;43.604;1.364;2023-04-08T08:57:18;9.80;;;2.75;;
26407;SDS011;14583;43.604;1.364;2023-04-08T08:59:47;6.07;;;2.60;;
26407;SDS011;14583;43.604;1.364;2023-04-08T09:02:25;6.75;;;2.40;;
26407;SDS011;14583;43.604;1.364;2023-04-08T09:04:56;6.57;;;2.70;;
26407;SDS011;14583;43.604;1.364;2023-04-08T09:07:23;7.57;;;2.50;;
26407;SDS011;14583;43.604;1.364;2023-04-08T09:09:52;7.57;;;2.38;;
26407;SDS011;14583;43.604;1.364;2023-04-08T09:12:19;7.93;;;2.10;;
26407;SDS011;14583;43.604;1.364;2023-04-08T09:14:45;8.13;;;2.17;;
26407;SDS011;14583;43.604;1.364;2023-04-08T09:17:12;6.88;;;2.05;;
26407;SDS011;14583;43.604;1.364;2023-04-08T09:19:38;3.40;;;1.90;;
26407;SDS011;14583;43.604;1.364;2023-04-08T09:22:04;4.15;;;2.15;;
26407;SDS011;14583;43.604;1.364;2023-04-08T09:24:31;6.97;;;1.88;;
26407;SDS011;14583;43.604;1.364;2023-04-08T09:26:57;6.22;;;2.20;;
26407;SDS011;14583;43.604;1.364;2023-04-08T09:29:24;7.00;;;2.10;;
26407;SDS011;14583;43.604;1.364;2023-04-08T09:31:54;5.18;;;1.70;;
26407;SDS011;14583;43.604;1.364;2023-04-08T09:34:21;5.40;;;2.00;;
26407;SDS011;14583;43.604;1.364;2023-04-08T09:36:51;4.00;;;1.88;;
26407;SDS011;14583;43.604;1.364;2023-04-08T09:39:18;5.60;;;2.03;;
26407;SDS011;14583;43.604;1.364;2023-04-08T09:41:44;4.43;;;2.50;;
26407;SDS011;14583;43.604;1.364;2023-04-08T09:44:13;7.05;;;2.20;;
26407;SDS011;14583;43.604;1.364;2023-04-08T09:46:46;4.15;;;1.92;;
26407;SDS011;14583;43.604;1.364;2023-04-08T09:49:38;5.47;;;1.90;;
26407;SDS011;14583;43.604;1.364;2023-04-08T09:52:10;7.35;;;2.40;;
26407;SDS011;14583;43.604;1.364;2023-04-08T09:57:43;7.70;;;1.80;;
26407;SDS011;14583;43.604;1.364;2023-04-08T10:00:14;9.43;;;2.00;;
26407;SDS011;14583;43.604;1.364;2023-04-08T10:05:19;8.15;;;2.00;;
26407;SDS011;14583;43.604;1.364;2023-04-08T10:07:46;7.63;;;2.10;;
26407;SDS011;14583;43.604;1.364;2023-04-08T10:10:14;3.05;;;1.77;;
26407;SDS011;14583;43.604;1.364;2023-04-08T10:12:40;6.70;;;1.90;;
26407;SDS011;14583;43.604;1.364;2023-04-08T10:17:52;5.40;;;1.83;;
26407;SDS011;14583;43.604;1.364;2023-04-08T10:23:17;7.45;;;1.80;;
26407;SDS011;14583;43.604;1.364;2023-04-08T10:25:45;7.30;;;1.95;;
26407;SDS011;14583;43.604;1.364;2023-04-08T10:30:44;3.38;;;1.90;;
26407;SDS011;14583;43.604;1.364;2023-04-08T10:36:06;4.18;;;1.63;;
26407;SDS011;14583;43.604;1.364;2023-04-08T10:38:34;3.35;;;1.85;;
26407;SDS011;14583;43.604;1.364;2023-04-08T10:41:00;4.35;;;2.00;;
26407;SDS011;14583;43.604;1.364;2023-04-08T10:43:30;6.15;;;1.80;;
26407;SDS011;14583;43.604;1.364;2023-04-08T10:46:00;4.13;;;1.90;;
26407;SDS011;14583;43.604;1.364;2023-04-08T10:48:26;3.22;;;1.63;;
26407;SDS011;14583;43.604;1.364;2023-04-08T10:50:56;6.07;;;2.60;;
26407;SDS011;14583;43.604;1.364;2023-04-08T10:53:31;7.30;;;2.55;;
26407;SDS011;14583;43.604;1.364;2023-04-08T10:58:33;5.95;;;1.90;;
26407;SDS011;14583;43.604;1.364;2023-04-08T11:01:05;5.90;;;2.30;;
26407;SDS011;14583;43.604;1.364;2023-04-08T11:03:32;4.45;;;1.90;;
26407;SDS011;14583;43.604;1.364;2023-04-08T11:05:58;3.97;;;1.75;;
26407;SDS011;14583;43.604;1.364;2023-04-08T11:08:31;5.03;;;2.05;;
26407;SDS011;14583;43.604;1.364;2023-04-08T11:13:26;6.50;;;2.38;;
26407;SDS011;14583;43.604;1.364;2023-04-08T11:15:53;6.05;;;2.10;;
26407;SDS011;14583;43.604;1.364;2023-04-08T11:18:22;6.60;;;2.13;;
26407;SDS011;14583;43.604;1.364;2023-04-08T11:20:49;8.77;;;2.22;;
26407;SDS011;14583;43.604;1.364;2023-04-08T11:23:16;5.90;;;2.03;;
26407;SDS011;14583;43.604;1.364;2023-04-08T11:25:42;3.92;;;1.80;;
26407;SDS011;14583;43.604;1.364;2023-04-08T11:28:15;3.95;;;1.88;;
26407;SDS011;14583;43.604;1.364;2023-04-08T11:30:41;5.35;;;1.75;;
26407;SDS011;14583;43.604;1.364;2023-04-08T11:33:07;4.28;;;1.80;;
26407;SDS011;14583;43.604;1.364;2023-04-08T11:35:34;6.07;;;1.70;;
26407;SDS011;14583;43.604;1.364;2023-04-08T11:38:05;4.90;;;1.77;;
26407;SDS011;14583;43.604;1.364;2023-04-08T11:40:31;5.38;;;2.08;;
26407;SDS011;14583;43.604;1.364;2023-04-08T11:42:57;3.42;;;1.90;;
26407;SDS011;14583;43.604;1.364;2023-04-08T11:45:23;4.90;;;2.13;;
26407;SDS011;14583;43.604;1.364;2023-04-08T11:47:49;3.65;;;2.22;;
26407;SDS011;14583;43.604;1.364;2023-04-08T11:50:24;4.95;;;2.88;;
26407;SDS011;14583;43.604;1.364;2023-04-08T11:52:51;7.00;;;2.05;;
26407;SDS011;14583;43.604;1.364;2023-04-08T11:57:50;4.20;;;2.33;;
26407;SDS011;14583;43.604;1.364;2023-04-08T12:00:19;4.18;;;2.05;;
26407;SDS011;14583;43.604;1.364;2023-04-08T12:02:45;4.32;;;2.10;;
26407;SDS011;14583;43.604;1.364;2023-04-08T12:05:13;8.98;;;2.55;;
26407;SDS011;14583;43.604;1.364;2023-04-08T12:07:40;3.85;;;1.65;;
26407;SDS011;14583;43.604;1.364;2023-04-08T12:10:06;3.10;;;1.80;;
26407;SDS011;14583;43.604;1.364;2023-04-08T12:12:33;3.72;;;2.00;;
26407;SDS011;14583;43.604;1.364;2023-04-08T12:14:58;3.70;;;1.92;;
26407;SDS011;14583;43.604;1.364;2023-04-08T12:17:24;9.25;;;1.70;;
26407;SDS011;14583;43.604;1.364;2023-04-08T12:19:50;3.85;;;1.60;;
26407;SDS011;14583;43.604;1.364;2023-04-08T12:22:15;4.97;;;1.80;;
26407;SDS011;14583;43.604;1.364;2023-04-08T12:24:41;3.58;;;1.65;;
26407;SDS011;14583;43.604;1.364;2023-04-08T12:27:07;3.85;;;1.70;;
26407;SDS011;14583;43.604;1.364;2023-04-08T12:29:33;5.93;;;1.67;;
26407;SDS011;14583;43.604;1.364;2023-04-08T12:31:58;2.63;;;1.40;;
26407;SDS011;14583;43.604;1.364;2023-04-08T12:34:24;5.93;;;2.03;;
26407;SDS011;14583;43.604;1.364;2023-04-08T12:36:50;6.18;;;1.80;;
26407;SDS011;14583;43.604;1.364;2023-04-08T12:39:15;3.60;;;1.65;;
26407;SDS011;14583;43.604;1.364;2023-04-08T12:41:41;3.45;;;1.63;;
26407;SDS011;14583;43.604;1.364;2023-04-08T12:44:07;2.70;;;1.50;;
26407;SDS011;14583;43.604;1.364;2023-04-08T12:46:32;2.80;;;1.50;;
26407;SDS011;14583;43.604;1.364;2023-04-08T12:48:58;5.05;;;1.50;;
26407;SDS011;14583;43.604;1.364;2023-04-08T12:51:24;3.03;;;1.42;;
26407;SDS011;14583;43.604;1.364;2023-04-08T12:53:50;3.05;;;1.48;;
26407;SDS011;14583;43.604;1.364;2023-04-08T12:56:16;3.40;;;1.60;;
26407;SDS011;14583;43.604;1.364;2023-04-08T12:58:42;3.00;;;1.40;;
26407;SDS011;14583;43.604;1.364;2023-04-08T13:01:08;4.65;;;1.77;;
26407;SDS011;14583;43.604;1.364;2023-04-08T13:03:33;5.28;;;2.05;;
26407;SDS011;14583;43.604;1.364;2023-04-08T13:06:00;3.08;;;1.90;;
26407;SDS011;14583;43.604;1.364;2023-04-08T13:08:26;2.97;;;1.65;;
26407;SDS011;14583;43.604;1.364;2023-04-08T13:10:51;7.45;;;1.85;;
26407;SDS011;14583;43.604;1.364;2023-04-08T13:13:18;4.90;;;1.85;;
26407;SDS011;14583;43.604;1.364;2023-04-08T13:15:44;6.18;;;1.60;;
26407;SDS011;14583;43.604;1.364;2023-04-08T13:18:09;5.25;;;1.45;;
26407;SDS011;14583;43.604;1.364;2023-04-08T13:20:35;6.55;;;2.00;;
26407;SDS011;14583;43.604;1.364;2023-04-08T13:23:00;4.30;;;1.75;;
26407;SDS011;14583;43.604;1.364;2023-04-08T13:25:26;4.03;;;1.85;;
26407;SDS011;14583;43.604;1.364;2023-04-08T13:27:52;4.38;;;1.80;;
26407;SDS011;14583;43.604;1.364;2023-04-08T13:30:18;6.05;;;2.78;;
26407;SDS011;14583;43.604;1.364;2023-04-08T13:32:43;5.00;;;1.98;;
26407;SDS011;14583;43.604;1.364;2023-04-08T13:35:09;6.03;;;2.13;;
26407;SDS011;14583;43.604;1.364;2023-04-08T13:37:35;3.47;;;1.80;;
26407;SDS011;14583;43.604;1.364;2023-04-08T13:40:01;2.83;;;1.38;;
26407;SDS011;14583;43.604;1.364;2023-04-08T13:42:27;2.28;;;1.17;;
26407;SDS011;14583;43.604;1.364;2023-04-08T13:44:55;3.88;;;1.35;;
26407;SDS011;14583;43.604;1.364;2023-04-08T13:47:21;4.88;;;1.30;;
26407;SDS011;14583;43.604;1.364;2023-04-08T13:49:47;3.35;;;1.30;;
26407;SDS011;14583;43.604;1.364;2023-04-08T13:52:13;2.65;;;1.25;;
26407;SDS011;14583;43.604;1.364;2023-04-08T13:54:38;1.85;;;1.10;;
26407;SDS011;14583;43.604;1.364;2023-04-08T13:57:04;3.00;;;1.42;;
26407;SDS011;14583;43.604;1.364;2023-04-08T13:59:30;2.65;;;1.10;;
26407;SDS011;14583;43.604;1.364;2023-04-08T14:01:56;2.08;;;1.35;;
26407;SDS011;14583;43.604;1.364;2023-04-08T14:04:21;3.10;;;1.40;;
26407;SDS011;14583;43.604;1.364;2023-04-08T14:06:48;3.58;;;1.08;;
26407;SDS011;14583;43.604;1.364;2023-04-08T14:09:15;2.55;;;1.13;;
26407;SDS011;14583;43.604;1.364;2023-04-08T14:11:41;5.20;;;1.17;;
26407;SDS011;14583;43.604;1.364;2023-04-08T14:14:07;2.70;;;1.30;;
26407;SDS011;14583;43.604;1.364;2023-04-08T14:16:33;5.18;;;1.85;;
26407;SDS011;14583;43.604;1.364;2023-04-08T14:18:59;3.53;;;1.60;;
26407;SDS011;14583;43.604;1.364;2023-04-08T14:21:25;5.47;;;1.60;;
26407;SDS011;14583;43.604;1.364;2023-04-08T14:23:51;5.13;;;1.58;;
26407;SDS011;14583;43.604;1.364;2023-04-08T14:26:17;2.50;;;1.52;;
26407;SDS011;14583;43.604;1.364;2023-04-08T14:28:43;2.15;;;1.20;;
26407;SDS011;14583;43.604;1.364;2023-04-08T14:31:08;3.10;;;1.08;;
26407;SDS011;14583;43.604;1.364;2023-04-08T14:33:34;1.92;;;1.50;;
26407;SDS011;14583;43.604;1.364;2023-04-08T14:36:00;3.03;;;1.60;;
26407;SDS011;14583;43.604;1.364;2023-04-08T14:38:26;5.38;;;1.23;;
26407;SDS011;14583;43.604;1.364;2023-04-08T14:40:51;1.50;;;1.00;;
26407;SDS011;14583;43.604;1.364;2023-04-08T14:43:18;2.03;;;1.20;;
26407;SDS011;14583;43.604;1.364;2023-04-08T14:45:44;2.33;;;1.40;;
26407;SDS011;14583;43.604;1.364;2023-04-08T14:48:10;4.38;;;1.10;;
26407;SDS011;14583;43.604;1.364;2023-04-08T14:50:36;2.95;;;1.40;;
26407;SDS011;14583;43.604;1.364;2023-04-08T14:53:01;1.92;;;1.40;;
26407;SDS011;14583;43.604;1.364;2023-04-08T14:55:27;6.30;;;1.50;;
26407;SDS011;14583;43.604;1.364;2023-04-08T14:57:54;3.25;;;2.28;;
26407;SDS011;14583;43.604;1.364;2023-04-08T15:00:20;2.13;;;1.10;;
26407;SDS011;14583;43.604;1.364;2023-04-08T15:02:46;2.35;;;1.10;;
26407;SDS011;14583;43.604;1.364;2023-04-08T15:05:12;4.18;;;1.33;;
26407;SDS011;14583;43.604;1.364;2023-04-08T15:07:37;2.95;;;1.20;;
26407;SDS011;14583;43.604;1.364;2023-04-08T15:10:03;3.83;;;2.00;;
26407;SDS011;14583;43.604;1.364;2023-04-08T15:12:29;3.00;;;1.50;;